Time;durP1;ratioP1;P1;durP2;ratioP2;P2;SDS_P1;SDS_P2;PMS_P1;PMS_P2;Temp;Humidity;BMP_temperature;BMP_pressure;BME280_temperature;BME280_humidity;BME280_pressure;Samples;Min_cycle;Max_cycle;Signal;HPM_P1;HPM_P2
2022/05/19 00:01:42;;;;;;;3.42;2.50;;;;;;;27.05;39.39;99636.28;4111378;28;20290;-70
2022/05/19 00:03:43;;;;;;;4.72;2.72;;;;;;;26.84;40.22;99632.75;4113894;28;20242;-70
2022/05/19 00:05:45;;;;;;;4.10;2.70;;;;;;;26.80;39.81;99625.34;4110711;28;20361;-70
2022/05/19 00:07:47;;;;;;;3.58;2.47;;;;;;;26.65;39.84;99637.03;4113947;28;20242;-70
2022/05/19 00:09:49;;;;;;;4.88;2.50;;;;;;;26.80;40.13;99628.09;4113200;28;20272;-70
2022/05/19 00:11:53;;;;;;;3.08;2.75;;;;;;;26.26;40.72;99638.25;4109804;28;20230;-71
2022/05/19 00:13:55;;;;;;;5.00;2.90;;;;;;;26.19;41.03;99621.34;4113728;28;20234;-70
2022/05/19 00:15:58;;;;;;;3.80;2.90;;;;;;;25.73;42.30;99623.81;4115877;28;20226;-70
2022/05/19 00:18:00;;;;;;;4.20;3.33;;;;;;;26.29;41.32;99617.84;4107199;28;20235;-70
2022/05/19 00:20:01;;;;;;;3.70;3.08;;;;;;;25.49;42.50;99618.75;4115752;28;20655;-70
2022/05/19 00:22:03;;;;;;;3.20;2.80;;;;;;;26.39;41.05;99615.16;4113978;28;20337;-71
2022/05/19 00:24:06;;;;;;;4.20;2.80;;;;;;;25.95;41.66;99623.69;4113175;28;20231;-71
2022/05/19 00:26:08;;;;;;;4.60;2.97;;;;;;;25.97;41.52;99618.78;4112729;28;20255;-69
2022/05/19 00:28:09;;;;;;;5.15;2.88;;;;;;;25.88;41.74;99623.06;4114875;28;20280;-70
2022/05/19 00:30:12;;;;;;;4.45;2.80;;;;;;;25.36;42.75;99605.59;4115860;28;20222;-70
2022/05/19 00:32:14;;;;;;;5.32;2.75;;;;;;;24.83;43.30;99613.53;4108768;28;20227;-68
2022/05/19 00:34:16;;;;;;;3.47;2.70;;;;;;;25.36;42.65;99602.88;4113789;28;20234;-71
2022/05/19 00:36:20;;;;;;;3.33;2.90;;;;;;;24.94;43.56;99592.72;4113935;28;20778;-72
2022/05/19 00:38:21;;;;;;;4.70;3.20;;;;;;;25.40;42.86;99591.19;4110251;28;20291;-72
2022/05/19 00:40:24;;;;;;;5.13;2.90;;;;;;;24.85;43.61;99601.34;4115935;28;20771;-71
2022/05/19 00:42:44;;;;;;;3.88;3.10;;;;;;;24.15;45.11;99583.13;4110135;28;20242;-71
2022/05/19 00:44:46;;;;;;;3.88;3.13;;;;;;;23.56;46.27;99579.91;4113870;28;20643;-71
2022/05/19 00:46:57;;;;;;;4.78;3.40;;;;;;;24.45;45.00;99569.09;4114755;28;20647;-72
2022/05/19 00:49:11;;;;;;;3.40;3.10;;;;;;;23.58;46.37;99577.75;4113376;28;20307;-71
2022/05/19 00:51:16;;;;;;;5.90;3.42;;;;;;;23.05;47.56;99570.13;4108272;28;20238;-72
2022/05/19 00:53:41;;;;;;;3.80;3.47;;;;;;;23.73;46.91;99557.34;4115690;28;20226;-71
2022/05/19 00:55:48;;;;;;;5.30;3.50;;;;;;;24.07;45.97;99549.09;4114365;28;20243;-71
2022/05/19 00:57:56;;;;;;;5.82;3.40;;;;;;;24.48;45.20;99563.97;4113306;28;20242;-72
2022/05/19 01:00:05;;;;;;;5.22;3.78;;;;;;;23.89;46.31;99580.91;4113683;28;20293;-71
2022/05/19 01:02:10;;;;;;;6.05;3.88;;;;;;;24.99;44.30;99585.41;4113021;28;20238;-71
2022/05/19 01:04:31;;;;;;;4.85;3.25;;;;;;;24.79;44.61;99582.50;4116952;28;20230;-71
2022/05/19 01:06:34;;;;;;;6.85;3.90;;;;;;;24.66;44.68;99595.41;4120336;28;20239;-72
2022/05/19 01:08:55;;;;;;;13.02;4.47;;;;;;;25.15;43.95;99590.97;4119056;28;20243;-72
2022/05/19 01:10:57;;;;;;;5.18;4.10;;;;;;;24.76;44.37;99602.03;4108740;28;20326;-71
2022/05/19 01:12:59;;;;;;;5.22;4.07;;;;;;;23.81;46.28;99586.78;4114653;28;20315;-71
2022/05/19 01:15:02;;;;;;;5.25;3.83;;;;;;;23.79;46.26;99588.94;4109084;28;20270;-71
2022/05/19 01:17:06;;;;;;;6.65;3.67;;;;;;;24.24;45.69;99589.78;4112943;28;20242;-71
2022/05/19 01:19:36;;;;;;;8.07;3.80;;;;;;;24.76;44.80;99591.97;4108965;28;20239;-71
2022/05/19 01:21:37;;;;;;;7.13;4.30;;;;;;;24.62;44.80;99607.88;4111694;28;20304;-72
2022/05/19 01:24:01;;;;;;;6.25;4.10;;;;;;;24.88;44.42;99610.06;4113986;28;20247;-71
2022/05/19 01:26:16;;;;;;;6.15;3.95;;;;;;;24.76;44.50;99618.34;4125974;28;20230;-71
2022/05/19 01:28:18;;;;;;;7.28;4.20;;;;;;;24.55;44.99;99615.41;4111595;28;20332;-71
2022/05/19 01:30:20;;;;;;;5.38;3.90;;;;;;;24.48;45.10;99609.34;4111085;28;20242;-71
2022/05/19 01:32:25;;;;;;;6.13;4.25;;;;;;;24.30;45.32;99608.59;4112142;28;20230;-71
2022/05/19 01:34:30;;;;;;;5.90;4.47;;;;;;;24.18;45.29;99615.25;4116744;28;20242;-71
2022/05/19 01:36:32;;;;;;;4.88;4.00;;;;;;;24.43;45.20;99598.41;4112143;28;20281;-71
2022/05/19 01:38:34;;;;;;;5.28;4.18;;;;;;;24.11;45.65;99610.78;4113170;28;20238;-72
2022/05/19 01:40:36;;;;;;;6.03;3.80;;;;;;;23.31;47.23;99593.06;4131938;28;21057;-72
2022/05/19 01:42:47;;;;;;;4.68;3.88;;;;;;;23.33;47.36;99589.06;4113121;28;20753;-72
2022/05/19 01:45:04;;;;;;;5.38;4.18;;;;;;;23.23;47.70;99585.34;4112255;28;20257;-71
2022/05/19 01:47:28;;;;;;;5.72;4.32;;;;;;;21.90;49.63;99587.19;4113295;28;20242;-71
2022/05/19 01:49:40;;;;;;;5.63;4.30;;;;;;;21.82;50.46;99560.50;4113797;28;20618;-71
2022/05/19 01:52:00;;;;;;;4.25;3.72;;;;;;;22.66;48.72;99565.41;4112776;28;20234;-71
2022/05/19 01:54:18;;;;;;;5.50;4.47;;;;;;;23.24;47.46;99573.44;4111816;28;20238;-72
2022/05/19 01:56:29;;;;;;;4.97;3.90;;;;;;;22.95;48.03;99574.34;4109938;28;20301;-70
2022/05/19 01:58:39;;;;;;;6.43;4.20;;;;;;;22.75;48.13;99573.97;4107314;28;20242;-71
2022/05/19 02:00:42;;;;;;;5.78;4.40;;;;;;;23.35;47.25;99567.94;4093103;28;20235;-73
2022/05/19 02:02:56;;;;;;;5.23;4.13;;;;;;;23.62;46.78;99575.41;4099944;28;20242;-72
2022/05/19 02:05:04;;;;;;;6.27;4.93;;;;;;;23.44;46.97;99581.88;4114509;28;20292;-72
2022/05/19 02:07:09;;;;;;;8.93;4.27;;;;;;;23.13;47.78;99597.69;4111382;28;21024;-72
2022/05/19 02:09:19;;;;;;;7.85;4.40;;;;;;;23.14;47.54;99598.50;4105840;28;20297;-73
2022/05/19 02:11:28;;;;;;;6.45;4.85;;;;;;;22.27;49.07;99606.63;4098721;28;20226;-71
2022/05/19 02:13:32;;;;;;;5.23;4.30;;;;;;;22.79;48.21;99596.78;4108047;28;20246;-71
2022/05/19 02:15:40;;;;;;;4.50;4.10;;;;;;;22.23;49.25;99597.34;4108298;28;20297;-71
2022/05/19 02:17:44;;;;;;;6.37;4.70;;;;;;;22.59;48.82;99589.09;4107205;28;20226;-72
2022/05/19 02:19:50;;;;;;;5.27;4.10;;;;;;;22.06;49.61;99591.84;4133546;28;20234;-71
2022/05/19 02:21:53;;;;;;;4.33;3.93;;;;;;;22.31;49.06;99577.22;4096967;28;20716;-71
2022/05/19 02:23:58;;;;;;;4.43;3.90;;;;;;;22.11;49.50;99577.59;4108968;28;20234;-71
2022/05/19 02:26:01;;;;;;;6.87;4.60;;;;;;;21.94;49.86;99584.81;4111448;28;20242;-71
2022/05/19 02:28:11;;;;;;;8.43;4.67;;;;;;;22.04;49.82;99595.88;4109794;28;20715;-71
2022/05/19 02:30:18;;;;;;;5.10;4.10;;;;;;;21.80;50.00;99589.66;4109915;28;20222;-71
2022/05/19 02:32:20;;;;;;;7.13;4.43;;;;;;;20.64;52.62;99588.19;4110666;28;20250;-71
2022/05/19 02:34:22;;;;;;;4.90;4.40;;;;;;;21.55;50.81;99578.00;4114926;28;20297;-71
2022/05/19 02:36:24;;;;;;;7.40;4.50;;;;;;;21.77;50.46;99585.56;4114666;28;20372;-71
2022/05/19 02:38:26;;;;;;;7.17;4.57;;;;;;;21.42;50.90;99599.88;4114292;28;20231;-70
2022/05/19 02:40:31;;;;;;;6.77;4.50;;;;;;;20.69;52.83;99590.19;4109492;28;20238;-71
2022/05/19 02:42:33;;;;;;;5.50;4.53;;;;;;;21.10;51.92;99597.47;4108441;28;20231;-71
2022/05/19 02:44:35;;;;;;;5.93;4.00;;;;;;;20.77;52.30;99600.69;4107921;28;20266;-71
2022/05/19 02:46:37;;;;;;;8.17;4.67;;;;;;;20.39;53.15;99594.53;4111400;28;20242;-71
2022/05/19 02:48:38;;;;;;;6.47;4.83;;;;;;;20.88;52.28;99601.75;4116456;28;20246;-71
2022/05/19 02:50:42;;;;;;;5.57;4.20;;;;;;;20.94;52.02;99598.16;4111912;28;20586;-71
2022/05/19 02:52:45;;;;;;;5.37;4.57;;;;;;;21.30;51.43;99604.47;4109079;28;20286;-71
2022/05/19 02:54:47;;;;;;;7.50;4.33;;;;;;;21.30;51.16;99616.09;4108810;28;20284;-71
2022/05/19 02:56:48;;;;;;;6.43;4.60;;;;;;;20.71;52.27;99617.81;4109800;28;20684;-71
2022/05/19 02:58:50;;;;;;;9.23;4.20;;;;;;;20.85;51.75;99613.84;4107868;28;20242;-71
2022/05/19 03:00:52;;;;;;;6.37;4.40;;;;;;;21.13;51.82;99613.25;4114946;28;20305;-71
2022/05/19 03:02:57;;;;;;;4.97;4.33;;;;;;;20.83;51.82;99617.84;4122545;28;20746;-71
2022/05/19 03:04:59;;;;;;;6.50;4.50;;;;;;;20.91;52.38;99609.41;4108072;28;20284;-71
2022/05/19 03:07:01;;;;;;;4.60;3.97;;;;;;;20.83;52.31;99607.84;4108252;28;20301;-71
2022/05/19 03:09:04;;;;;;;6.90;4.30;;;;;;;20.60;52.41;99619.38;4111166;28;20238;-71
2022/05/19 03:11:06;;;;;;;4.93;4.43;;;;;;;20.92;52.15;99620.00;4110956;28;20242;-71
2022/05/19 03:13:15;;;;;;;5.80;4.43;;;;;;;21.13;51.97;99609.72;4114168;28;20245;-72
2022/05/19 03:15:17;;;;;;;8.63;4.90;;;;;;;21.12;51.38;99627.84;4106235;28;20234;-71
2022/05/19 03:17:18;;;;;;;6.37;4.67;;;;;;;20.44;53.34;99618.97;4109446;28;20314;-71
2022/05/19 03:19:21;;;;;;;5.80;4.90;;;;;;;20.48;52.98;99619.34;4108740;28;20675;-71
2022/05/19 03:21:23;;;;;;;6.53;4.50;;;;;;;20.72;52.80;99611.31;4112924;28;20287;-71
2022/05/19 03:23:27;;;;;;;5.43;4.73;;;;;;;21.11;51.53;99625.38;4113173;28;20254;-71
2022/05/19 03:25:28;;;;;;;5.30;4.80;;;;;;;21.20;51.31;99623.13;4112978;28;20293;-69
2022/05/19 03:27:34;;;;;;;4.77;4.37;;;;;;;21.50;51.03;99631.16;4116749;28;20239;-69
2022/05/19 03:29:42;;;;;;;5.07;4.33;;;;;;;21.61;50.49;99640.34;4108755;28;20237;-70
2022/05/19 03:31:43;;;;;;;6.13;4.97;;;;;;;21.83;49.55;99648.72;4111101;28;20715;-70
2022/05/19 03:33:45;;;;;;;5.47;4.67;;;;;;;21.90;49.73;99654.84;4111808;28;20341;-70
2022/05/19 03:35:59;;;;;;;8.73;4.87;;;;;;;21.81;49.96;99656.25;4113273;28;20261;-71
2022/05/19 03:38:00;;;;;;;5.33;4.63;;;;;;;21.47;50.44;99656.78;4111957;28;20230;-68
2022/05/19 03:40:04;;;;;;;5.20;4.70;;;;;;;21.85;49.78;99650.16;4113950;28;20296;-70
2022/05/19 03:42:07;;;;;;;6.40;4.50;;;;;;;21.82;50.13;99639.78;4110610;28;20230;-70
2022/05/19 03:44:08;;;;;;;5.80;4.63;;;;;;;22.44;48.62;99643.84;4107221;28;20301;-70
2022/05/19 03:46:10;;;;;;;7.33;4.50;;;;;;;21.45;50.52;99658.91;4116634;28;20673;-72
2022/05/19 03:48:12;;;;;;;4.90;4.37;;;;;;;22.34;48.81;99658.00;4115629;28;20234;-71
2022/05/19 03:50:14;;;;;;;5.47;4.20;;;;;;;21.57;50.46;99655.41;4115918;28;20328;-72
2022/05/19 03:52:16;;;;;;;6.63;4.53;;;;;;;22.35;48.64;99659.63;4113289;28;20234;-71
2022/05/19 03:54:18;;;;;;;5.17;4.57;;;;;;;22.39;48.53;99662.66;4111160;28;20231;-71
2022/05/19 03:56:21;;;;;;;6.07;4.80;;;;;;;22.03;49.29;99670.81;4109989;28;20234;-71
2022/05/19 03:58:22;;;;;;;4.93;3.93;;;;;;;22.14;49.37;99668.38;4107748;28;20292;-71
2022/05/19 04:00:25;;;;;;;5.50;4.47;;;;;;;22.00;49.16;99675.91;4114483;28;20262;-71
2022/05/19 04:02:27;;;;;;;5.10;4.43;;;;;;;22.21;48.80;99672.59;4114504;28;20238;-71
2022/05/19 04:04:36;;;;;;;4.80;4.40;;;;;;;21.59;50.18;99675.75;4114238;28;20312;-71
2022/05/19 04:06:38;;;;;;;8.13;4.70;;;;;;;21.45;50.55;99682.44;4115516;28;20235;-71
2022/05/19 04:08:40;;;;;;;6.40;4.17;;;;;;;21.94;49.34;99680.38;4114080;28;20289;-71
2022/05/19 04:10:44;;;;;;;5.90;4.63;;;;;;;21.84;49.75;99675.56;4114451;28;20334;-71
2022/05/19 04:12:46;;;;;;;7.53;4.77;;;;;;;22.39;48.61;99673.50;4115578;28;20296;-71
2022/05/19 04:14:48;;;;;;;8.40;4.90;;;;;;;21.96;49.30;99697.22;4112513;28;20804;-71
2022/05/19 04:16:52;;;;;;;5.27;4.63;;;;;;;21.40;50.46;99680.44;4114449;28;20819;-71
2022/05/19 04:18:54;;;;;;;5.60;4.93;;;;;;;21.49;50.21;99694.44;4117005;28;20260;-71
2022/05/19 04:20:56;;;;;;;5.73;4.47;;;;;;;21.52;50.34;99691.28;4120200;28;20226;-72
2022/05/19 04:23:00;;;;;;;6.70;4.70;;;;;;;21.11;50.84;99695.66;4114331;28;20243;-71
2022/05/19 04:25:02;;;;;;;8.67;4.93;;;;;;;20.84;51.97;99689.72;4112360;28;20242;-71
2022/05/19 04:27:04;;;;;;;5.93;5.33;;;;;;;20.64;51.51;99698.94;4113711;28;20669;-71
2022/05/19 04:29:06;;;;;;;8.93;4.90;;;;;;;20.97;51.13;99703.09;4113584;28;20249;-71
2022/05/19 04:31:08;;;;;;;5.57;4.43;;;;;;;21.59;50.31;99686.56;4114918;28;20296;-71
2022/05/19 04:33:10;;;;;;;6.97;5.10;;;;;;;21.72;49.88;99691.78;4117734;28;20268;-71
2022/05/19 04:35:15;;;;;;;5.63;5.03;;;;;;;21.79;49.81;99701.69;4116249;28;20238;-71
2022/05/19 04:37:17;;;;;;;7.17;4.57;;;;;;;21.61;50.03;99699.88;4115727;28;20237;-71
2022/05/19 04:39:18;;;;;;;8.33;5.20;;;;;;;21.90;49.50;99692.75;4117650;28;20768;-71
2022/05/19 04:41:20;;;;;;;8.57;4.97;;;;;;;21.18;50.87;99707.19;4116357;28;20227;-71
2022/05/19 04:43:22;;;;;;;6.20;5.10;;;;;;;21.34;50.44;99702.97;4114154;28;20239;-71
2022/05/19 04:45:24;;;;;;;6.97;4.80;;;;;;;21.73;49.62;99703.44;4114220;28;20261;-70
2022/05/19 04:47:26;;;;;;;5.30;4.60;;;;;;;21.76;49.68;99705.66;4111294;28;20305;-76
2022/05/19 04:49:28;;;;;;;6.13;4.97;;;;;;;21.15;50.55;99715.75;4122467;28;20238;-76
2022/05/19 04:51:30;;;;;;;6.17;4.97;;;;;;;21.47;50.48;99702.78;4115583;28;20238;-77
2022/05/19 04:53:31;;;;;;;7.10;5.03;;;;;;;21.36;50.63;99709.81;4113050;28;20711;-75
2022/05/19 04:55:36;;;;;;;8.23;4.70;;;;;;;21.48;50.21;99701.75;4122409;28;20235;-76
2022/05/19 04:57:38;;;;;;;6.77;4.90;;;;;;;20.57;51.86;99720.63;4115516;28;20740;-76
2022/05/19 05:02:28;;;;;;;7.13;4.90;;;;;;;20.73;52.95;99675.13;4138924;28;20840;-77
2022/05/19 05:04:30;;;;;;;5.73;5.10;;;;;;;20.79;52.30;99691.25;4135779;28;20229;-77
2022/05/19 05:06:32;;;;;;;6.40;5.07;;;;;;;21.55;50.73;99696.22;4145482;28;20237;-76
2022/05/19 05:08:34;;;;;;;5.60;5.00;;;;;;;21.24;51.21;99700.03;4147663;28;20242;-76
2022/05/19 05:10:35;;;;;;;7.67;4.70;;;;;;;21.48;50.81;99695.50;4135520;28;20288;-76
2022/05/19 05:12:37;;;;;;;5.97;4.73;;;;;;;21.61;50.47;99716.91;4135641;28;20642;-77
2022/05/19 05:14:39;;;;;;;5.87;4.90;;;;;;;22.00;49.74;99711.09;4136547;28;20263;-77
2022/05/19 05:16:49;;;;;;;7.17;5.43;;;;;;;21.97;49.75;99722.41;4138634;28;20332;-76
2022/05/19 05:18:51;;;;;;;6.73;5.27;;;;;;;22.48;49.08;99723.56;4133148;28;20234;-77
2022/05/19 05:20:53;;;;;;;6.10;5.03;;;;;;;21.93;50.07;99732.84;4118736;28;20290;-75
2022/05/19 05:22:54;;;;;;;9.23;5.23;;;;;;;22.42;49.33;99725.34;4126999;28;20523;-76
2022/05/19 05:24:56;;;;;;;5.77;5.17;;;;;;;21.74;50.66;99732.16;4139121;28;20225;-77
2022/05/19 05:26:58;;;;;;;6.67;5.40;;;;;;;22.08;49.99;99733.25;4135625;28;20244;-75
2022/05/19 05:29:00;;;;;;;7.13;5.00;;;;;;;22.32;49.44;99733.25;4136265;28;20292;-76
2022/05/19 05:31:03;;;;;;;6.27;4.70;;;;;;;22.19;49.74;99741.59;4136338;28;20225;-76
2022/05/19 05:33:11;;;;;;;6.83;4.80;;;;;;;22.16;49.84;99755.59;4139494;28;20260;-76
2022/05/19 05:35:12;;;;;;;6.60;4.80;;;;;;;22.15;49.83;99751.22;4135114;28;20615;-77
2022/05/19 05:37:14;;;;;;;5.77;4.77;;;;;;;22.02;49.66;99755.03;4137494;28;20229;-76
2022/05/19 05:39:16;;;;;;;4.97;4.40;;;;;;;22.44;49.03;99752.19;4141205;28;20237;-77
2022/05/19 05:41:17;;;;;;;5.60;4.20;;;;;;;22.26;49.38;99775.59;4134934;28;20253;-74
2022/05/19 05:43:21;;;;;;;8.90;5.10;;;;;;;22.32;49.34;99765.75;4135858;28;20237;-74
2022/05/19 05:45:22;;;;;;;5.20;4.63;;;;;;;22.57;49.11;99775.50;4129178;28;20734;-75
2022/05/19 05:47:24;;;;;;;6.30;4.60;;;;;;;22.79;48.42;99776.53;4135103;28;20233;-74
2022/05/19 05:49:26;;;;;;;8.10;4.20;;;;;;;22.42;49.31;99778.69;4138761;28;20592;-74
2022/05/19 05:51:28;;;;;;;8.47;4.50;;;;;;;23.00;48.30;99774.25;4139326;28;20291;-74
2022/05/19 05:53:29;;;;;;;4.90;4.40;;;;;;;23.06;48.10;99778.69;4137138;28;20242;-74
2022/05/19 05:55:32;;;;;;;5.97;4.35;;;;;;;23.14;47.73;99772.88;4139364;28;20229;-74
2022/05/19 05:57:34;;;;;;;5.47;4.50;;;;;;;22.84;48.31;99779.34;4137036;28;20283;-75
2022/05/19 05:59:35;;;;;;;6.53;4.05;;;;;;;22.61;48.45;99782.09;4136705;28;20241;-75
2022/05/19 06:01:37;;;;;;;5.35;4.85;;;;;;;22.64;48.78;99779.72;4137123;28;23065;-75
2022/05/19 06:03:39;;;;;;;5.35;4.30;;;;;;;23.26;47.74;99775.56;4135153;28;20665;-74
2022/05/19 06:05:42;;;;;;;4.80;4.05;;;;;;;23.26;47.72;99780.16;4139347;28;20784;-74
2022/05/19 06:07:44;;;;;;;5.27;4.57;;;;;;;23.23;47.90;99781.44;4135245;28;20270;-74
2022/05/19 06:09:46;;;;;;;4.72;4.20;;;;;;;22.55;49.06;99770.31;4131976;28;20229;-75
2022/05/19 06:11:48;;;;;;;5.35;4.22;;;;;;;22.21;50.36;99774.69;4134871;28;20284;-74
2022/05/19 06:13:50;;;;;;;5.78;3.85;;;;;;;23.10;48.10;99770.91;4122512;28;20234;-74
2022/05/19 06:15:52;;;;;;;5.32;4.47;;;;;;;22.73;48.71;99772.06;4130416;28;20233;-74
2022/05/19 06:17:54;;;;;;;6.43;4.50;;;;;;;23.14;48.93;99770.19;4123094;28;20229;-74
2022/05/19 06:19:56;;;;;;;7.55;4.35;;;;;;;22.77;49.53;99773.22;4129737;28;20256;-74
2022/05/19 06:21:58;;;;;;;6.03;4.30;;;;;;;22.89;48.78;99770.47;4120442;28;20234;-74
2022/05/19 06:24:00;;;;;;;5.63;4.32;;;;;;;23.67;47.88;99770.06;4125830;28;20238;-75
2022/05/19 06:26:02;;;;;;;5.80;4.10;;;;;;;23.70;47.74;99780.44;4123602;28;20781;-74
2022/05/19 06:28:05;;;;;;;5.82;3.95;;;;;;;22.20;51.43;99783.84;4122312;28;20230;-74
2022/05/19 06:30:07;;;;;;;6.45;3.80;;;;;;;23.10;49.68;99769.03;4125131;28;20246;-74
2022/05/19 06:32:10;;;;;;;6.53;4.22;;;;;;;23.63;48.20;99774.34;4124895;28;20931;-74
2022/05/19 06:34:13;;;;;;;9.57;4.13;;;;;;;24.19;46.93;99780.69;4127612;28;20233;-73
2022/05/19 06:36:20;;;;;;;7.25;3.88;;;;;;;23.60;48.50;99791.13;4122656;28;20749;-74
2022/05/19 06:38:22;;;;;;;6.03;3.28;;;;;;;23.61;47.27;99799.00;4131181;28;20234;-73
2022/05/19 06:40:26;;;;;;;6.00;3.50;;;;;;;23.88;46.41;99801.09;4138134;28;20288;-74
2022/05/19 06:42:27;;;;;;;5.07;3.65;;;;;;;23.48;48.65;99804.72;4123729;28;20735;-74
2022/05/19 06:44:39;;;;;;;5.72;3.80;;;;;;;22.99;49.83;99802.41;4125941;28;20642;-74
2022/05/19 06:46:41;;;;;;;5.05;3.58;;;;;;;23.70;47.73;99794.00;4124299;28;20229;-75
2022/05/19 06:48:43;;;;;;;6.90;3.95;;;;;;;24.05;46.91;99801.09;4128843;28;20319;-73
2022/05/19 06:50:45;;;;;;;4.60;3.90;;;;;;;24.36;46.39;99809.72;4134740;28;20269;-75
2022/05/19 06:52:52;;;;;;;5.43;3.45;;;;;;;23.55;49.33;99808.09;4127435;28;20788;-75
2022/05/19 06:54:56;;;;;;;6.25;3.78;;;;;;;23.14;50.38;99801.91;4127282;28;20237;-74
2022/05/19 06:57:01;;;;;;;6.07;3.40;;;;;;;23.58;49.00;99796.78;4128736;28;20291;-74
2022/05/19 06:59:03;;;;;;;5.82;3.40;;;;;;;23.70;48.34;99802.16;4124331;28;20613;-74
2022/05/19 07:01:05;;;;;;;5.20;3.58;;;;;;;23.52;48.85;99805.88;4125000;28;20770;-74
2022/05/19 07:03:07;;;;;;;3.97;3.58;;;;;;;23.73;49.17;99799.75;4124885;28;20693;-73
2022/05/19 07:05:09;;;;;;;5.07;3.83;;;;;;;24.10;47.56;99795.75;4123586;28;20280;-73
2022/05/19 07:07:12;;;;;;;4.38;3.70;;;;;;;24.15;47.36;99797.72;4127589;28;20345;-74
2022/05/19 07:09:13;;;;;;;7.63;3.70;;;;;;;24.56;46.48;99815.47;4127954;28;20229;-74
2022/05/19 07:11:27;;;;;;;5.32;3.53;;;;;;;25.03;45.24;99814.19;4127617;28;20288;-74
2022/05/19 07:13:31;;;;;;;4.78;3.60;;;;;;;24.76;45.79;99819.53;4124916;28;20234;-74
2022/05/19 07:15:34;;;;;;;5.22;3.80;;;;;;;24.80;45.73;99816.09;4125298;28;20234;-74
2022/05/19 07:17:35;;;;;;;4.85;3.47;;;;;;;25.04;45.90;99816.66;4117759;28;20647;-75
2022/05/19 07:21:57;;;;;;;5.75;3.50;;;;;;;23.81;47.95;99814.84;4118432;28;20225;-76
2022/05/19 07:23:59;;;;;;;6.85;3.70;;;;;;;23.64;49.16;99814.81;4126511;28;20230;-74
2022/05/19 07:26:00;;;;;;;5.00;3.47;;;;;;;24.40;46.78;99808.19;4121644;28;20243;-74
2022/05/19 07:28:02;;;;;;;4.90;3.47;;;;;;;24.18;46.26;99814.38;4124443;28;20793;-74
2022/05/19 07:30:05;;;;;;;4.28;3.63;;;;;;;24.74;45.28;99822.50;4127168;28;20261;-75
2022/05/19 07:32:08;;;;;;;4.18;2.92;;;;;;;24.81;45.65;99816.91;4123635;28;20253;-74
2022/05/19 07:34:12;;;;;;;8.95;3.60;;;;;;;24.30;46.97;99812.38;4124025;28;20238;-75
2022/05/19 07:36:14;;;;;;;6.28;3.70;;;;;;;24.75;45.69;99807.00;4114947;28;20790;-75
2022/05/19 07:38:16;;;;;;;5.47;4.28;;;;;;;25.33;44.44;99813.72;4120365;28;20229;-74
2022/05/19 07:40:19;;;;;;;4.57;3.03;;;;;;;24.15;48.75;99812.13;4116362;28;20222;-75
2022/05/19 07:42:21;;;;;;;7.40;3.58;;;;;;;23.38;48.94;99811.59;4149544;28;20233;-75
2022/05/19 07:44:24;;;;;;;6.00;3.58;;;;;;;24.25;48.93;99796.00;4125862;28;20230;-75
2022/05/19 07:46:27;;;;;;;5.50;3.10;;;;;;;24.94;46.92;99789.34;4124925;28;20460;-75
2022/05/19 07:48:29;;;;;;;4.72;3.70;;;;;;;25.47;45.13;99808.72;4125813;28;21029;-75
2022/05/19 07:50:31;;;;;;;3.90;3.50;;;;;;;24.81;47.22;99806.03;4124720;28;20233;-74
2022/05/19 07:52:33;;;;;;;3.80;3.50;;;;;;;25.85;44.10;99809.63;4131823;28;20292;-74
2022/05/19 07:54:35;;;;;;;3.90;3.25;;;;;;;25.23;45.60;99811.69;4121644;28;20230;-75
2022/05/19 07:56:38;;;;;;;7.85;3.42;;;;;;;25.33;45.43;99805.56;4124203;28;20249;-75
2022/05/19 07:58:40;;;;;;;3.75;3.45;;;;;;;25.50;45.21;99807.38;4123201;28;20871;-74
2022/05/19 08:00:42;;;;;;;8.15;3.95;;;;;;;25.27;46.03;99806.56;4127175;28;20265;-75
2022/05/19 08:02:44;;;;;;;4.22;3.47;;;;;;;25.82;44.57;99804.69;4123701;28;20265;-75
2022/05/19 08:04:46;;;;;;;4.93;3.53;;;;;;;25.66;45.87;99805.63;4125937;28;20665;-75
2022/05/19 08:06:48;;;;;;;6.18;3.47;;;;;;;25.79;44.49;99799.75;4124242;28;20249;-75
2022/05/19 08:08:50;;;;;;;6.70;3.50;;;;;;;25.60;46.07;99799.31;4124987;28;20241;-75
2022/05/19 08:10:53;;;;;;;7.38;3.50;;;;;;;25.86;44.81;99807.72;4125297;28;20270;-74
2022/05/19 08:15:36;;;;;;;5.65;3.53;;;;;;;25.56;45.43;99806.34;4118702;28;20274;-74
2022/05/19 08:17:38;;;;;;;4.60;3.10;;;;;;;26.07;44.87;99809.56;4114787;28;20253;-75
2022/05/19 08:19:42;;;;;;;4.18;3.33;;;;;;;25.93;45.86;99805.59;4103875;28;20293;-75
2022/05/19 08:21:45;;;;;;;4.93;3.63;;;;;;;26.05;46.10;99805.44;4116673;28;20242;-75
2022/05/19 08:23:50;;;;;;;5.20;3.30;;;;;;;25.88;46.28;99808.25;4122723;28;20235;-75
2022/05/19 08:25:53;;;;;;;3.83;3.00;;;;;;;25.71;46.56;99809.22;4124337;28;20261;-75
2022/05/19 08:27:56;;;;;;;4.70;3.17;;;;;;;25.81;45.69;99808.47;4122854;28;20272;-75
2022/05/19 08:29:58;;;;;;;3.92;3.20;;;;;;;25.65;46.08;99799.38;4123135;28;20884;-74
2022/05/19 08:32:00;;;;;;;5.32;3.30;;;;;;;26.23;45.45;99798.75;4123949;28;20723;-75
2022/05/19 08:34:03;;;;;;;6.20;3.63;;;;;;;25.96;45.29;99805.09;4124027;28;20233;-75
2022/05/19 08:36:07;;;;;;;3.97;3.17;;;;;;;25.96;45.08;99808.66;4124894;28;20226;-76
2022/05/19 08:38:08;;;;;;;4.70;3.10;;;;;;;26.03;45.05;99802.16;4124422;28;20221;-75
2022/05/19 08:40:10;;;;;;;4.07;3.10;;;;;;;25.57;46.02;99797.91;4123913;28;20348;-74
2022/05/19 08:42:16;;;;;;;5.95;3.40;;;;;;;25.79;45.17;99794.31;4127015;28;20781;-73
2022/05/19 08:44:38;;;;;;;4.72;3.13;;;;;;;26.05;45.59;99791.81;4139120;28;20226;-75
2022/05/19 08:46:46;;;;;;;6.13;3.47;;;;;;;26.30;45.71;99794.72;4124704;28;20233;-75
2022/05/19 08:48:52;;;;;;;7.75;3.72;;;;;;;25.93;45.20;99792.81;4124200;28;20238;-75
2022/05/19 08:51:07;;;;;;;3.38;3.08;;;;;;;26.76;44.44;99790.63;4125243;28;20225;-76
2022/05/19 08:53:11;;;;;;;9.02;7.53;;;;;;;26.59;44.80;99785.34;4127111;28;20702;-76
2022/05/19 08:55:17;;;;;;;7.65;4.07;;;;;;;26.52;44.73;99791.88;4124035;28;20304;-76
2022/05/19 08:57:42;;;;;;;6.53;3.40;;;;;;;26.62;44.54;99793.00;4121307;28;20229;-75
2022/05/19 08:59:53;;;;;;;6.53;3.15;;;;;;;26.04;46.36;99779.28;4120883;28;20624;-75
2022/05/19 09:02:09;;;;;;;4.65;3.60;;;;;;;26.51;45.41;99776.59;4123841;28;20488;-75
2022/05/19 09:04:41;;;;;;;5.82;3.17;;;;;;;26.80;45.18;99772.66;4123713;28;20230;-75
2022/05/19 09:10:07;;;;;;;7.57;3.60;;;;;;;26.07;45.78;99763.22;4103741;28;20296;-76
2022/05/19 09:12:17;;;;;;;3.97;3.45;;;;;;;26.25;46.41;99763.88;4117977;28;20218;-76
2022/05/19 09:14:25;;;;;;;5.20;3.53;;;;;;;26.55;45.02;99762.44;4124154;28;20233;-76
2022/05/19 09:16:33;;;;;;;6.43;3.67;;;;;;;26.80;44.57;99759.81;4119768;28;20222;-76
2022/05/19 09:18:38;;;;;;;5.45;3.40;;;;;;;26.39;45.83;99766.97;4128930;28;20245;-76
2022/05/19 09:20:44;;;;;;;5.50;3.55;;;;;;;25.57;46.92;99764.44;4124229;28;20237;-76
2022/05/19 09:22:46;;;;;;;7.18;3.30;;;;;;;25.59;46.37;99754.94;4120433;28;20763;-75
2022/05/19 09:24:50;;;;;;;7.40;3.40;;;;;;;26.34;46.48;99749.50;4127243;28;20245;-75
2022/05/19 09:26:53;;;;;;;5.25;3.40;;;;;;;27.01;44.81;99758.00;4123898;28;20654;-75
2022/05/19 09:29:03;;;;;;;6.90;3.35;;;;;;;27.25;44.58;99757.53;4125275;28;20291;-76
2022/05/19 09:31:05;;;;;;;7.00;3.75;;;;;;;26.68;45.95;99761.97;4117750;28;20296;-76
2022/05/19 09:33:16;;;;;;;4.70;3.40;;;;;;;26.63;45.67;99753.75;4123533;28;20316;-76
2022/05/19 09:35:23;;;;;;;4.32;3.25;;;;;;;27.31;45.08;99736.50;4126015;28;20229;-75
2022/05/19 09:37:46;;;;;;;11.35;3.63;;;;;;;27.63;44.68;99747.19;4121523;28;20229;-75
2022/05/19 09:39:59;;;;;;;6.97;3.33;;;;;;;27.68;44.37;99762.78;4125608;28;20237;-75
2022/05/19 09:42:07;;;;;;;5.00;3.17;;;;;;;27.25;44.42;99763.78;4122910;28;20230;-76
2022/05/19 09:44:15;;;;;;;6.95;3.55;;;;;;;27.56;44.03;99752.09;4119124;28;20222;-75
2022/05/19 09:46:17;;;;;;;6.53;3.78;;;;;;;27.83;45.10;99765.50;4121202;28;20792;-75
2022/05/19 09:48:31;;;;;;;8.43;3.40;;;;;;;27.63;44.99;99758.97;4124692;28;20690;-75
2022/05/19 09:50:43;;;;;;;8.18;3.63;;;;;;;27.29;45.20;99763.25;4126813;28;20296;-75
2022/05/19 09:52:46;;;;;;;5.97;3.45;;;;;;;27.76;44.04;99760.31;4128263;28;20311;-75
2022/05/19 09:54:54;;;;;;;7.25;3.60;;;;;;;27.80;45.03;99752.38;4125234;28;20234;-76
2022/05/19 09:57:05;;;;;;;8.60;3.78;;;;;;;27.97;44.35;99761.13;4125169;28;20287;-76
2022/05/19 09:59:13;;;;;;;5.78;3.47;;;;;;;28.12;44.32;99756.72;4125610;28;20233;-75